Time;durP1;ratioP1;P1;durP2;ratioP2;P2;SDS_P1;SDS_P2;PMS_P1;PMS_P2;Temp;Humidity;BMP_temperature;BMP_pressure;BME280_temperature;BME280_humidity;BME280_pressure;Samples;Min_cycle;Max_cycle;Signal;HPM_P1;HPM_P2
2021/09/11 00:01:55;;;;;;;20.05;18.13;;;24.20;84.00;;;;;;4176084;28;20064;-60
2021/09/11 00:04:17;;;;;;;19.33;17.50;;;24.20;84.00;;;;;;4178852;28;20048;-61
2021/09/11 00:06:39;;;;;;;19.45;17.58;;;24.20;84.30;;;;;;4192184;28;20052;-60
2021/09/11 00:09:01;;;;;;;19.88;18.02;;;24.20;84.00;;;;;;4191927;28;20060;-60
2021/09/11 00:11:23;;;;;;;18.75;16.85;;;24.20;84.00;;;;;;4175637;28;20518;-60
2021/09/11 00:13:47;;;;;;;20.00;17.90;;;24.20;84.20;;;;;;4171406;28;20483;-60
2021/09/11 00:16:09;;;;;;;20.00;17.88;;;24.20;84.20;;;;;;4159137;28;20741;-64
2021/09/11 00:18:31;;;;;;;20.40;18.60;;;24.20;85.10;;;;;;4159179;28;20130;-60
2021/09/11 00:20:53;;;;;;;19.70;17.67;;;24.10;84.20;;;;;;4174789;28;20112;-60
2021/09/11 00:23:15;;;;;;;19.85;17.88;;;24.20;84.20;;;;;;4175120;28;20052;-61
2021/09/11 00:25:38;;;;;;;18.05;16.40;;;24.10;84.30;;;;;;4173943;28;20041;-60
2021/09/11 00:28:00;;;;;;;17.35;15.70;;;24.20;84.40;;;;;;4173766;28;20443;-59
2021/09/11 00:30:24;;;;;;;19.45;17.55;;;24.10;84.40;;;;;;4174099;28;20103;-60
2021/09/11 00:32:46;;;;;;;20.45;18.35;;;24.10;84.40;;;;;;4189998;28;20086;-60
2021/09/11 00:35:10;;;;;;;20.58;18.58;;;24.10;84.40;;;;;;4190042;28;20059;-60
2021/09/11 00:37:32;;;;;;;19.42;17.45;;;24.10;84.40;;;;;;4191546;28;20056;-60
2021/09/11 00:39:54;;;;;;;20.50;18.48;;;24.10;84.40;;;;;;4191345;28;20472;-60
2021/09/11 00:42:17;;;;;;;20.90;19.00;;;24.10;84.40;;;;;;4191250;28;20402;-60
2021/09/11 00:44:39;;;;;;;20.65;18.65;;;24.10;84.40;;;;;;4177975;28;20416;-59
2021/09/11 00:47:02;;;;;;;18.20;16.30;;;24.10;84.40;;;;;;4175080;28;20491;-60
2021/09/11 00:49:24;;;;;;;20.48;18.38;;;24.10;84.40;;;;;;4183070;28;20051;-60
2021/09/11 00:51:47;;;;;;;19.65;17.75;;;24.10;84.50;;;;;;4191440;28;20044;-60
2021/09/11 00:54:11;;;;;;;19.33;17.52;;;24.10;84.40;;;;;;4191391;28;20056;-60
2021/09/11 00:56:34;;;;;;;18.50;16.38;;;24.10;84.50;;;;;;4191731;28;20483;-60
2021/09/11 00:58:56;;;;;;;15.40;13.82;;;24.10;84.40;;;;;;4187169;28;20657;-60
2021/09/11 01:01:18;;;;;;;14.15;12.70;;;24.10;84.40;;;;;;4175822;28;20064;-60
2021/09/11 01:03:42;;;;;;;15.02;12.00;;;24.10;84.50;;;;;;4191339;28;20509;-60
2021/09/11 01:06:05;;;;;;;12.60;11.50;;;24.10;84.50;;;;;;4191479;28;20059;-60
2021/09/11 01:08:27;;;;;;;12.07;11.05;;;24.10;84.60;;;;;;4191325;28;20490;-61
2021/09/11 01:10:50;;;;;;;12.45;11.45;;;24.10;84.60;;;;;;4190855;28;22564;-60
2021/09/11 01:13:12;;;;;;;12.50;11.43;;;24.10;84.50;;;;;;4186646;28;20045;-60
2021/09/11 01:15:43;;;;;;;11.38;10.48;;;24.10;84.50;;;;;;4191321;28;20402;-60
2021/09/11 01:18:05;;;;;;;11.43;10.52;;;24.10;84.50;;;;;;4190645;28;20040;-60
2021/09/11 01:20:28;;;;;;;10.93;10.02;;;24.10;84.50;;;;;;4174637;28;20490;-60
2021/09/11 01:22:50;;;;;;;11.73;10.65;;;24.10;84.40;;;;;;4190191;28;20068;-60
2021/09/11 01:25:14;;;;;;;11.50;10.55;;;24.10;84.40;;;;;;4184840;28;20052;-60
2021/09/11 01:27:36;;;;;;;10.52;9.73;;;24.10;84.40;;;;;;4191271;28;20051;-60
2021/09/11 01:30:01;;;;;;;11.57;10.57;;;24.00;84.50;;;;;;4191450;28;20737;-61
2021/09/11 01:32:23;;;;;;;11.02;10.10;;;24.00;84.50;;;;;;4191136;28;20485;-61
2021/09/11 01:34:45;;;;;;;10.40;9.55;;;24.00;84.50;;;;;;4187797;28;20452;-60
2021/09/11 01:37:11;;;;;;;10.57;9.63;;;24.00;84.50;;;;;;4174557;28;20529;-61
2021/09/11 01:39:33;;;;;;;9.10;8.30;;;24.00;84.40;;;;;;4174305;28;20571;-61
2021/09/11 01:41:56;;;;;;;9.55;8.55;;;24.00;84.40;;;;;;4174469;28;20045;-59
2021/09/11 01:44:18;;;;;;;8.30;7.70;;;24.00;84.30;;;;;;4174443;28;20049;-61
2021/09/11 01:46:40;;;;;;;9.20;8.50;;;24.00;84.30;;;;;;4191398;28;20449;-61
2021/09/11 01:49:03;;;;;;;8.75;8.15;;;24.00;84.20;;;;;;4189495;28;20058;-60
2021/09/11 01:51:25;;;;;;;8.48;7.75;;;24.00;84.10;;;;;;4191199;28;20040;-61
2021/09/11 01:53:47;;;;;;;7.72;7.13;;;24.00;84.00;;;;;;4182746;28;20064;-60
2021/09/11 01:56:09;;;;;;;8.25;7.60;;;24.00;84.00;;;;;;4174366;28;20499;-60
2021/09/11 01:58:32;;;;;;;7.95;7.25;;;24.00;83.90;;;;;;4174402;28;20052;-60
2021/09/11 02:00:55;;;;;;;7.55;7.03;;;24.00;83.80;;;;;;4180153;28;20110;-61
2021/09/11 02:03:17;;;;;;;7.88;7.28;;;24.00;83.90;;;;;;4194198;28;20102;-60
2021/09/11 02:05:39;;;;;;;7.13;6.55;;;24.00;83.70;;;;;;4194015;28;20487;-61
2021/09/11 02:08:02;;;;;;;6.97;6.47;;;24.00;83.60;;;;;;4194108;28;20121;-61
2021/09/11 02:10:24;;;;;;;6.15;5.75;;;24.00;83.60;;;;;;4194239;28;20071;-60
2021/09/11 02:12:46;;;;;;;6.97;6.47;;;24.00;83.50;;;;;;4193915;28;20070;-60
2021/09/11 02:15:11;;;;;;;7.03;6.15;;;24.00;83.40;;;;;;4193902;28;20135;-61
2021/09/11 02:17:32;;;;;;;7.55;6.95;;;23.90;83.20;;;;;;4188467;28;20484;-61
2021/09/11 02:19:54;;;;;;;7.80;7.20;;;23.90;83.30;;;;;;4177609;28;20053;-61
2021/09/11 02:22:17;;;;;;;7.30;6.80;;;23.90;83.20;;;;;;4177248;28;20048;-60
2021/09/11 02:24:39;;;;;;;7.95;7.38;;;23.90;83.20;;;;;;4176092;28;20037;-60
2021/09/11 02:27:01;;;;;;;8.30;7.68;;;23.90;83.30;;;;;;4177041;28;20048;-60
2021/09/11 02:29:23;;;;;;;9.02;8.35;;;23.90;84.10;;;;;;4184080;28;20052;-61
2021/09/11 02:31:46;;;;;;;8.57;7.72;;;23.90;83.20;;;;;;4193337;28;20556;-61
2021/09/11 02:34:08;;;;;;;8.68;7.97;;;23.90;83.20;;;;;;4193563;28;20073;-60
2021/09/11 02:36:30;;;;;;;8.35;7.75;;;23.90;83.20;;;;;;4181194;28;20066;-61
2021/09/11 02:38:52;;;;;;;8.68;7.80;;;23.90;84.10;;;;;;4177075;28;20045;-60
2021/09/11 02:41:15;;;;;;;8.80;8.10;;;23.90;83.20;;;;;;4187685;28;20127;-60
2021/09/11 02:43:37;;;;;;;8.80;8.00;;;23.90;83.40;;;;;;4193422;28;20051;-60
2021/09/11 02:45:59;;;;;;;7.47;6.88;;;23.90;83.40;;;;;;4183253;28;20139;-60
2021/09/11 02:48:22;;;;;;;9.75;9.05;;;23.90;83.50;;;;;;4188102;28;20080;-60
2021/09/11 02:50:45;;;;;;;12.18;8.75;;;23.90;83.40;;;;;;4177791;28;20056;-61
2021/09/11 02:53:06;;;;;;;10.60;9.60;;;23.90;83.50;;;;;;4193507;28;20770;-61
2021/09/11 02:55:28;;;;;;;10.50;9.55;;;23.90;83.50;;;;;;4192419;28;20068;-59
2021/09/11 02:57:51;;;;;;;11.30;10.30;;;23.90;83.50;;;;;;4193332;28;20414;-59
2021/09/11 03:00:13;;;;;;;10.77;9.77;;;23.90;83.60;;;;;;4193225;28;20561;-60
2021/09/11 03:02:35;;;;;;;11.48;10.50;;;23.90;83.50;;;;;;4193308;28;20486;-60
2021/09/11 03:04:58;;;;;;;12.75;11.65;;;23.80;83.70;;;;;;4193007;28;20045;-60
2021/09/11 03:07:20;;;;;;;13.55;12.25;;;23.90;83.70;;;;;;4190098;28;20049;-60
2021/09/11 03:09:42;;;;;;;12.60;11.50;;;23.80;83.80;;;;;;4176738;28;20055;-60
2021/09/11 03:12:06;;;;;;;13.95;12.55;;;23.90;83.90;;;;;;4176128;28;20126;-60
2021/09/11 03:14:28;;;;;;;15.23;13.82;;;23.80;84.00;;;;;;4176188;28;20060;-60
2021/09/11 03:16:51;;;;;;;15.18;12.95;;;23.80;84.00;;;;;;4176366;28;20091;-59
2021/09/11 03:19:13;;;;;;;15.40;13.77;;;23.80;84.00;;;;;;4175696;28;20073;-60
2021/09/11 03:21:36;;;;;;;14.85;13.45;;;23.80;83.90;;;;;;4166572;28;20041;-60
2021/09/11 03:23:58;;;;;;;15.57;13.90;;;23.80;83.90;;;;;;4176418;28;20051;-60
2021/09/11 03:26:20;;;;;;;15.80;14.30;;;23.80;83.90;;;;;;4174853;28;20525;-59
2021/09/11 03:28:42;;;;;;;14.90;13.50;;;23.80;84.00;;;;;;4176482;28;20052;-60
2021/09/11 03:31:05;;;;;;;16.30;14.77;;;23.80;84.00;;;;;;4176399;28;20041;-59
2021/09/11 03:33:27;;;;;;;15.98;14.27;;;23.80;84.10;;;;;;4176893;28;20102;-59
2021/09/11 03:35:49;;;;;;;16.23;14.50;;;23.80;84.20;;;;;;4176196;28;20045;-60
2021/09/11 03:38:13;;;;;;;15.43;13.82;;;23.80;84.20;;;;;;4176179;28;20048;-58
2021/09/11 03:40:35;;;;;;;16.52;14.82;;;23.80;84.30;;;;;;4176135;28;20454;-59
2021/09/11 03:42:57;;;;;;;16.80;15.18;;;23.80;84.30;;;;;;4176143;28;20441;-59
2021/09/11 03:45:19;;;;;;;16.38;14.68;;;23.80;84.30;;;;;;4188695;28;20876;-60
2021/09/11 03:47:42;;;;;;;18.40;15.60;;;23.80;84.40;;;;;;4192416;28;20406;-60
2021/09/11 03:50:04;;;;;;;16.65;15.07;;;23.80;84.30;;;;;;4184259;28;20419;-60
2021/09/11 03:52:26;;;;;;;16.98;15.30;;;23.80;84.30;;;;;;4187799;28;20049;-60
2021/09/11 03:54:50;;;;;;;16.30;14.60;;;23.80;84.30;;;;;;4192243;28;25118;-60
2021/09/11 03:57:12;;;;;;;15.75;14.15;;;23.80;84.40;;;;;;4181023;28;20053;-60
2021/09/11 03:59:33;;;;;;;17.65;15.95;;;23.80;84.50;;;;;;4191148;28;20049;-60
2021/09/11 04:01:56;;;;;;;17.75;16.13;;;23.80;84.40;;;;;;4192028;28;20064;-61
2021/09/11 04:04:18;;;;;;;16.02;14.50;;;23.80;84.30;;;;;;4192198;28;20490;-61
2021/09/11 04:06:40;;;;;;;14.48;13.18;;;23.80;84.40;;;;;;4192453;28;20166;-61
2021/09/11 04:09:03;;;;;;;16.27;14.77;;;23.80;84.40;;;;;;4191058;28;20059;-61
2021/09/11 04:11:26;;;;;;;17.30;15.65;;;23.80;84.40;;;;;;4191722;28;20128;-61
2021/09/11 04:13:48;;;;;;;18.67;16.80;;;23.80;84.30;;;;;;4190837;28;20060;-61
2021/09/11 04:16:11;;;;;;;18.25;16.52;;;23.70;84.20;;;;;;4190626;28;20071;-61
2021/09/11 04:18:32;;;;;;;17.58;15.82;;;23.70;84.20;;;;;;4190777;28;20052;-60
2021/09/11 04:20:55;;;;;;;17.00;15.45;;;23.70;84.20;;;;;;4190217;28;20536;-60
2021/09/11 04:23:17;;;;;;;16.67;15.18;;;23.70;84.20;;;;;;4189586;28;20040;-61
2021/09/11 04:25:38;;;;;;;18.35;16.65;;;23.70;84.30;;;;;;4175519;28;20049;-61
2021/09/11 04:28:02;;;;;;;17.98;16.30;;;23.70;84.20;;;;;;4170140;28;20049;-61
2021/09/11 04:30:24;;;;;;;16.90;15.27;;;23.70;84.20;;;;;;4173980;28;20044;-61
2021/09/11 04:32:47;;;;;;;18.00;16.23;;;23.70;84.20;;;;;;4191895;28;20045;-61
2021/09/11 04:35:09;;;;;;;17.67;15.82;;;23.70;84.20;;;;;;4174898;28;20055;-61
2021/09/11 04:37:32;;;;;;;17.67;15.88;;;23.70;84.20;;;;;;4174930;28;20052;-61
2021/09/11 04:39:54;;;;;;;16.65;15.07;;;23.70;84.30;;;;;;4175324;28;20587;-62
2021/09/11 04:42:16;;;;;;;17.70;16.00;;;23.70;84.20;;;;;;4175296;28;20056;-61
2021/09/11 04:44:39;;;;;;;16.25;14.63;;;23.70;84.20;;;;;;4174959;28;20053;-61
2021/09/11 04:47:01;;;;;;;17.42;15.60;;;23.70;84.20;;;;;;4191893;28;20414;-61
2021/09/11 04:49:23;;;;;;;17.50;15.80;;;23.70;84.20;;;;;;4190968;28;20073;-60
2021/09/11 04:51:46;;;;;;;18.52;16.52;;;23.70;84.10;;;;;;4191329;28;20075;-60
2021/09/11 04:54:08;;;;;;;16.48;14.88;;;23.70;84.10;;;;;;4191368;28;20409;-60
2021/09/11 04:56:30;;;;;;;15.77;14.18;;;23.70;84.10;;;;;;4191166;28;20084;-61
2021/09/11 04:58:52;;;;;;;15.20;13.70;;;23.60;84.00;;;;;;4190665;28;20121;-60
2021/09/11 05:01:15;;;;;;;12.23;11.13;;;23.60;84.00;;;;;;4180512;28;20053;-60
2021/09/11 05:03:38;;;;;;;13.45;11.85;;;23.60;84.00;;;;;;4173376;28;20048;-60
2021/09/11 05:05:59;;;;;;;12.18;10.85;;;23.60;83.90;;;;;;4173509;28;20080;-60
2021/09/11 05:08:22;;;;;;;11.38;10.18;;;23.60;83.80;;;;;;4174724;28;20059;-60
2021/09/11 05:10:44;;;;;;;11.52;10.43;;;23.60;83.70;;;;;;4184974;28;20044;-61
2021/09/11 05:13:08;;;;;;;11.88;10.27;;;23.60;83.60;;;;;;4191048;28;20086;-60
2021/09/11 05:15:30;;;;;;;11.20;10.10;;;23.60;83.50;;;;;;4191132;28;20390;-60
2021/09/11 05:17:53;;;;;;;9.55;8.38;;;23.60;83.50;;;;;;4191023;28;20503;-60
2021/09/11 05:20:16;;;;;;;11.73;9.25;;;23.60;83.50;;;;;;4190919;28;20747;-60
2021/09/11 05:22:39;;;;;;;10.10;9.10;;;23.60;83.30;;;;;;4190880;28;20062;-60
2021/09/11 05:25:01;;;;;;;12.10;9.10;;;23.60;83.30;;;;;;4190999;28;20086;-60
2021/09/11 05:27:23;;;;;;;9.75;8.40;;;23.60;83.20;;;;;;4191132;28;20086;-60
2021/09/11 05:29:45;;;;;;;14.48;9.38;;;23.60;83.30;;;;;;4190503;28;20048;-60
2021/09/11 05:32:08;;;;;;;10.05;8.77;;;23.60;83.20;;;;;;4191192;28;20490;-61
2021/09/11 05:34:31;;;;;;;12.10;9.80;;;23.60;83.20;;;;;;4186255;28;20076;-60
2021/09/11 05:36:53;;;;;;;9.98;8.80;;;23.60;83.20;;;;;;4174734;28;20049;-60
2021/09/11 05:39:15;;;;;;;10.88;8.57;;;23.60;83.20;;;;;;4184376;28;20049;-60
2021/09/11 05:41:38;;;;;;;9.40;8.40;;;23.60;83.20;;;;;;4190869;28;20139;-61
2021/09/11 05:44:00;;;;;;;10.98;8.43;;;23.60;83.10;;;;;;4190975;28;20410;-61
2021/09/11 05:46:22;;;;;;;9.77;8.88;;;23.60;82.90;;;;;;4175702;28;20052;-61
2021/09/11 05:48:44;;;;;;;9.25;8.07;;;23.60;82.70;;;;;;4190607;28;20048;-59
2021/09/11 05:51:07;;;;;;;8.57;7.80;;;23.60;82.80;;;;;;4191008;28;20063;-60
2021/09/11 05:53:29;;;;;;;9.30;8.13;;;23.60;82.80;;;;;;4175342;28;20539;-61
2021/09/11 05:55:52;;;;;;;8.90;8.00;;;23.60;82.90;;;;;;4173842;28;20072;-61
2021/09/11 05:58:14;;;;;;;9.27;8.15;;;23.60;82.70;;;;;;4171871;28;20549;-61
2021/09/11 06:00:36;;;;;;;10.00;8.10;;;23.60;82.80;;;;;;4157816;28;20057;-61
2021/09/11 06:02:58;;;;;;;9.23;7.95;;;23.60;82.80;;;;;;4172831;28;20045;-61
2021/09/11 06:05:21;;;;;;;10.05;8.25;;;23.50;82.70;;;;;;4172516;28;20044;-61
2021/09/11 06:07:45;;;;;;;10.43;9.07;;;23.60;82.90;;;;;;4177336;28;20049;-60
2021/09/11 06:10:08;;;;;;;9.20;8.30;;;23.50;82.40;;;;;;4172550;28;20053;-61
2021/09/11 06:12:30;;;;;;;10.15;8.32;;;23.50;83.40;;;;;;4173487;28;20419;-61
2021/09/11 06:14:52;;;;;;;9.63;8.73;;;23.50;82.50;;;;;;4184861;28;20052;-61
2021/09/11 06:17:14;;;;;;;9.38;8.40;;;23.50;82.40;;;;;;4180779;28;20052;-61
2021/09/11 06:19:37;;;;;;;10.90;9.35;;;23.50;82.40;;;;;;4173605;28;20103;-61
2021/09/11 06:21:59;;;;;;;11.20;9.57;;;23.50;82.30;;;;;;4180807;28;20499;-60
2021/09/11 06:24:22;;;;;;;10.55;9.55;;;23.50;82.40;;;;;;4184118;28;20052;-59
2021/09/11 06:26:44;;;;;;;11.38;9.43;;;23.50;82.20;;;;;;4190577;28;20526;-60
2021/09/11 06:29:06;;;;;;;10.38;8.90;;;23.50;82.20;;;;;;4190689;28;20517;-60
2021/09/11 06:31:29;;;;;;;11.82;9.55;;;23.50;82.30;;;;;;4190916;28;20048;-60
2021/09/11 06:33:51;;;;;;;12.18;9.65;;;23.50;83.00;;;;;;4190134;28;20052;-60
2021/09/11 06:36:13;;;;;;;11.65;10.02;;;23.50;82.10;;;;;;4189577;28;20060;-60
2021/09/11 06:38:36;;;;;;;11.95;10.70;;;23.50;82.10;;;;;;4196534;28;20052;-59
2021/09/11 06:40:59;;;;;;;11.20;10.02;;;23.50;82.10;;;;;;4207259;28;20044;-60
2021/09/11 06:43:21;;;;;;;14.00;10.82;;;23.50;81.90;;;;;;4207334;28;20052;-60
2021/09/11 06:45:43;;;;;;;10.93;9.82;;;23.40;81.80;;;;;;4204815;28;20051;-60
2021/09/11 06:48:05;;;;;;;12.95;11.60;;;23.50;81.70;;;;;;4169803;28;20140;-60
2021/09/11 06:50:27;;;;;;;12.13;10.90;;;23.40;81.70;;;;;;4176712;28;20056;-60
2021/09/11 06:52:49;;;;;;;11.93;10.60;;;23.40;82.20;;;;;;4174457;28;20437;-59
2021/09/11 06:55:12;;;;;;;16.98;10.70;;;23.40;82.30;;;;;;4166699;28;20068;-58
2021/09/11 06:57:35;;;;;;;12.90;11.55;;;23.40;82.20;;;;;;4186527;28;20052;-58
2021/09/11 06:59:58;;;;;;;12.82;11.52;;;23.40;82.00;;;;;;4193335;28;20455;-59
2021/09/11 07:02:21;;;;;;;12.23;10.98;;;23.40;81.90;;;;;;4193177;28;20040;-60
2021/09/11 07:04:43;;;;;;;14.15;12.65;;;23.40;81.90;;;;;;4192836;28;20050;-60
2021/09/11 07:07:07;;;;;;;13.02;11.45;;;23.40;81.80;;;;;;4176710;28;20048;-59
2021/09/11 07:09:30;;;;;;;16.02;12.25;;;23.40;81.80;;;;;;4187090;28;20396;-60
2021/09/11 07:11:52;;;;;;;17.20;13.30;;;23.40;81.70;;;;;;4176989;28;20056;-60
2021/09/11 07:14:17;;;;;;;14.18;11.52;;;23.40;81.60;;;;;;4175455;28;20415;-59
2021/09/11 07:16:39;;;;;;;15.32;12.20;;;23.40;81.60;;;;;;4176445;28;20045;-60
2021/09/11 07:19:01;;;;;;;12.23;11.02;;;23.30;81.50;;;;;;4170465;28;20052;-59
2021/09/11 07:21:24;;;;;;;13.13;11.73;;;23.30;81.60;;;;;;4165432;28;20127;-60
2021/09/11 07:23:46;;;;;;;14.00;12.57;;;23.30;81.50;;;;;;4160035;28;20045;-60
2021/09/11 07:26:08;;;;;;;13.13;11.77;;;23.30;81.60;;;;;;4176112;28;20477;-59
2021/09/11 07:28:30;;;;;;;14.63;12.10;;;23.30;81.60;;;;;;4159903;28;20129;-59
2021/09/11 07:30:54;;;;;;;13.13;11.75;;;23.30;81.50;;;;;;4168460;28;20052;-59
2021/09/11 07:33:16;;;;;;;13.20;11.57;;;23.40;81.50;;;;;;4176180;28;20077;-59
2021/09/11 07:35:38;;;;;;;13.88;12.00;;;23.30;81.50;;;;;;4176137;28;20056;-59
2021/09/11 07:38:00;;;;;;;13.10;11.80;;;23.30;81.50;;;;;;4175984;28;20587;-59
2021/09/11 07:40:22;;;;;;;13.45;11.98;;;23.30;81.60;;;;;;4169961;28;20053;-59
2021/09/11 07:42:44;;;;;;;14.13;12.68;;;23.30;81.40;;;;;;4159913;28;20148;-55
2021/09/11 07:45:12;;;;;;;13.20;11.80;;;23.30;81.40;;;;;;4163912;28;20551;-59
2021/09/11 07:47:36;;;;;;;14.75;13.25;;;23.30;81.40;;;;;;4167466;28;20045;-60
2021/09/11 07:49:58;;;;;;;15.05;12.05;;;23.30;81.40;;;;;;4176208;28;20426;-59
2021/09/11 07:52:20;;;;;;;15.05;11.48;;;23.30;81.30;;;;;;4192769;28;20130;-58
2021/09/11 07:54:42;;;;;;;14.07;12.63;;;23.30;81.40;;;;;;4208926;28;20089;-59
2021/09/11 07:57:04;;;;;;;13.35;11.95;;;23.30;81.20;;;;;;4189607;28;20487;-58
2021/09/11 07:59:26;;;;;;;13.20;11.90;;;23.30;81.20;;;;;;4159482;28;20057;-59
2021/09/11 08:01:49;;;;;;;13.82;12.15;;;23.30;81.20;;;;;;4171371;28;20072;-59
2021/09/11 08:04:12;;;;;;;14.25;12.75;;;23.30;81.20;;;;;;4162684;28;20057;-59
2021/09/11 08:06:35;;;;;;;13.65;12.23;;;23.30;81.20;;;;;;4175882;28;20076;-59
2021/09/11 08:08:57;;;;;;;13.68;12.40;;;23.30;81.20;;;;;;4175577;28;20473;-58
2021/09/11 08:11:19;;;;;;;14.30;12.70;;;23.30;82.10;;;;;;4175705;28;20098;-59
2021/09/11 08:13:41;;;;;;;15.52;13.02;;;23.30;81.30;;;;;;4175793;28;20133;-58
2021/09/11 08:16:03;;;;;;;14.95;12.70;;;23.30;81.20;;;;;;4175696;28;20728;-58
2021/09/11 08:18:26;;;;;;;15.40;13.82;;;23.30;81.20;;;;;;4159495;28;20057;-58
2021/09/11 08:20:49;;;;;;;15.68;13.30;;;23.30;81.20;;;;;;4159064;28;20041;-59
2021/09/11 08:23:12;;;;;;;14.88;13.25;;;23.30;81.10;;;;;;4159186;28;20046;-58
2021/09/11 08:25:34;;;;;;;14.15;12.75;;;23.30;81.20;;;;;;4157565;28;20056;-59
2021/09/11 08:27:56;;;;;;;15.68;14.07;;;23.30;81.20;;;;;;4167682;28;20770;-59
2021/09/11 08:30:18;;;;;;;14.20;12.73;;;23.30;81.20;;;;;;4175135;28;20127;-58
2021/09/11 08:32:40;;;;;;;15.32;13.75;;;23.30;81.20;;;;;;4179408;28;20055;-59
2021/09/11 08:35:02;;;;;;;16.38;12.68;;;23.30;81.20;;;;;;4190938;28;20052;-59
2021/09/11 08:37:25;;;;;;;14.40;12.88;;;23.30;81.30;;;;;;4190219;28;20157;-59
2021/09/11 08:39:47;;;;;;;16.63;13.10;;;23.30;81.30;;;;;;4175370;28;20049;-59
2021/09/11 08:42:11;;;;;;;16.48;14.35;;;23.30;81.40;;;;;;4175426;28;20064;-61
2021/09/11 08:44:34;;;;;;;15.32;13.70;;;23.30;82.40;;;;;;4176447;28;20055;-60
2021/09/11 08:46:56;;;;;;;16.92;13.30;;;23.30;81.70;;;;;;4184246;28;20048;-59
2021/09/11 08:49:19;;;;;;;16.75;14.02;;;23.30;81.60;;;;;;4174691;28;20084;-60
2021/09/11 08:51:41;;;;;;;16.13;13.68;;;23.30;81.60;;;;;;4168896;28;20044;-60
2021/09/11 08:54:04;;;;;;;17.08;13.98;;;23.30;81.60;;;;;;4174731;28;20056;-58
2021/09/11 08:56:26;;;;;;;15.02;13.32;;;23.30;81.70;;;;;;4174369;28;20491;-59
2021/09/11 08:59:05;;;;;;;14.70;12.85;;;23.30;81.90;;;;;;4174247;28;20040;-60
2021/09/11 09:01:28;;;;;;;14.45;12.90;;;23.30;81.70;;;;;;4190148;28;20044;-60
2021/09/11 09:03:50;;;;;;;20.27;13.35;;;23.30;81.90;;;;;;4191250;28;20044;-60
2021/09/11 09:06:19;;;;;;;14.85;13.38;;;23.30;82.00;;;;;;4182978;28;20053;-60
2021/09/11 09:08:41;;;;;;;16.45;13.77;;;23.30;82.20;;;;;;4190548;28;20353;-60
2021/09/11 09:11:20;;;;;;;15.55;12.80;;;23.30;82.40;;;;;;4191472;28;20056;-59
2021/09/11 09:13:50;;;;;;;16.05;13.63;;;23.30;82.30;;;;;;4191178;28;20052;-59
2021/09/11 09:16:16;;;;;;;18.17;13.38;;;23.30;82.50;;;;;;4190948;28;20040;-60
2021/09/11 09:18:38;;;;;;;14.43;12.90;;;23.30;82.60;;;;;;4191360;28;20041;-59
2021/09/11 09:21:16;;;;;;;15.43;13.85;;;23.30;82.70;;;;;;4191266;28;20143;-60
2021/09/11 09:23:46;;;;;;;14.20;12.80;;;23.30;82.90;;;;;;4191130;28;20118;-60
2021/09/11 09:26:09;;;;;;;15.20;13.10;;;23.20;82.80;;;;;;4191010;28;20059;-60
2021/09/11 09:28:32;;;;;;;14.57;13.13;;;23.30;82.90;;;;;;4191309;28;20075;-60
2021/09/11 09:30:54;;;;;;;14.88;13.23;;;23.30;83.00;;;;;;4191374;28;20569;-60
2021/09/11 09:33:21;;;;;;;14.75;12.00;;;23.30;83.00;;;;;;4191114;28;20406;-60
2021/09/11 09:35:43;;;;;;;14.48;12.68;;;23.20;82.80;;;;;;4190470;28;20060;-61
2021/09/11 09:38:07;;;;;;;14.60;13.20;;;23.30;83.80;;;;;;4190762;28;20051;-59
2021/09/11 09:40:41;;;;;;;14.43;12.90;;;23.30;83.00;;;;;;4191130;28;20658;-59
2021/09/11 09:43:07;;;;;;;14.35;12.60;;;23.30;83.00;;;;;;4190869;28;20044;-59
2021/09/11 09:45:32;;;;;;;14.30;12.85;;;23.30;83.00;;;;;;4191014;28;20060;-60
2021/09/11 09:48:00;;;;;;;13.43;12.07;;;23.30;83.00;;;;;;4191144;28;20171;-60
2021/09/11 09:50:22;;;;;;;15.95;13.05;;;23.30;83.10;;;;;;4190934;28;20524;-60
2021/09/11 09:52:44;;;;;;;13.77;11.90;;;23.30;83.20;;;;;;4191226;28;20049;-59
2021/09/11 09:55:10;;;;;;;13.73;12.40;;;23.30;83.20;;;;;;4190828;28;20386;-60
2021/09/11 09:57:32;;;;;;;14.38;12.98;;;23.30;83.20;;;;;;4174537;28;20086;-59
2021/09/11 09:59:56;;;;;;;14.45;13.00;;;23.30;83.20;;;;;;4174421;28;20053;-60
2021/09/11 10:02:20;;;;;;;13.93;12.45;;;23.30;83.20;;;;;;4174779;28;20107;-59
2021/09/11 10:04:42;;;;;;;15.60;13.95;;;23.20;83.10;;;;;;4174021;28;20131;-61
2021/09/11 10:07:07;;;;;;;13.77;12.35;;;23.30;83.20;;;;;;4174217;28;20132;-60
2021/09/11 10:09:31;;;;;;;14.48;12.93;;;23.30;83.30;;;;;;4174468;28;20053;-60
2021/09/11 10:11:53;;;;;;;14.38;11.88;;;23.30;83.30;;;;;;4174177;28;20065;-60
2021/09/11 10:14:16;;;;;;;14.95;13.32;;;23.30;83.20;;;;;;4174393;28;20495;-59
2021/09/11 10:16:41;;;;;;;14.23;12.77;;;23.30;83.20;;;;;;4187171;28;20045;-59
2021/09/11 10:19:19;;;;;;;13.95;12.63;;;23.30;83.20;;;;;;4190377;28;20127;-61
2021/09/11 10:21:42;;;;;;;16.50;12.95;;;23.30;83.30;;;;;;4192428;28;20048;-59
2021/09/11 10:24:35;;;;;;;14.63;13.13;;;23.30;83.30;;;;;;4194181;28;20056;-59
2021/09/11 10:27:01;;;;;;;15.10;11.95;;;23.30;83.40;;;;;;4141833;28;20058;-59
2021/09/11 10:29:50;;;;;;;14.00;12.70;;;23.30;83.50;;;;;;4187089;28;20048;-60
2021/09/11 10:32:17;;;;;;;14.80;12.43;;;23.30;83.50;;;;;;4193833;28;20475;-60
2021/09/11 10:34:50;;;;;;;16.13;13.27;;;23.20;83.40;;;;;;4176794;28;20056;-59
2021/09/11 10:37:13;;;;;;;14.45;13.10;;;23.20;83.40;;;;;;4184818;28;20056;-59
2021/09/11 10:39:35;;;;;;;13.82;12.38;;;23.20;83.40;;;;;;4189152;28;20045;-59
2021/09/11 10:42:04;;;;;;;14.32;12.88;;;23.20;83.50;;;;;;4177251;28;20045;-60
2021/09/11 10:44:27;;;;;;;13.27;11.88;;;23.30;83.50;;;;;;4177893;28;20052;-59
2021/09/11 10:46:50;;;;;;;14.45;12.73;;;23.30;83.60;;;;;;4177085;28;20041;-59
2021/09/11 10:49:26;;;;;;;14.48;12.88;;;23.30;83.70;;;;;;4176855;28;20064;-59
2021/09/11 10:52:03;;;;;;;13.95;11.10;;;23.30;83.80;;;;;;4177152;28;20534;-59
2021/09/11 10:54:31;;;;;;;13.27;12.07;;;23.30;84.10;;;;;;4176544;28;20053;-59
2021/09/11 10:57:03;;;;;;;14.15;12.73;;;23.30;84.20;;;;;;4192072;28;20067;-60
2021/09/11 10:59:31;;;;;;;14.73;12.55;;;23.30;84.10;;;;;;4192884;28;20091;-60
2021/09/11 11:02:02;;;;;;;14.27;12.75;;;23.30;84.10;;;;;;4188467;28;20511;-60
2021/09/11 11:04:25;;;;;;;12.98;11.68;;;23.30;84.10;;;;;;4192174;28;20561;-61
2021/09/11 11:06:47;;;;;;;13.07;11.65;;;23.30;84.00;;;;;;4192988;28;20040;-60
2021/09/11 11:09:18;;;;;;;13.48;11.55;;;23.30;84.10;;;;;;4193069;28;20044;-60
2021/09/11 11:11:43;;;;;;;15.07;12.98;;;23.30;84.10;;;;;;4177850;28;20048;-60
2021/09/11 11:14:05;;;;;;;13.85;11.70;;;23.30;84.00;;;;;;4193391;28;20119;-60
2021/09/11 11:16:45;;;;;;;13.43;12.02;;;23.30;84.00;;;;;;4176566;28;20053;-60
2021/09/11 11:19:09;;;;;;;12.05;10.98;;;23.30;84.10;;;;;;4176106;28;20048;-60
2021/09/11 11:21:32;;;;;;;11.43;10.25;;;23.30;84.00;;;;;;4174978;28;20056;-60
2021/09/11 11:23:55;;;;;;;15.50;10.82;;;23.30;84.00;;;;;;4159951;28;20052;-60
2021/09/11 11:26:19;;;;;;;10.75;9.70;;;23.30;84.90;;;;;;4192257;28;20398;-60
2021/09/11 11:28:42;;;;;;;11.60;10.40;;;23.30;84.00;;;;;;4192482;28;20044;-60
2021/09/11 11:31:03;;;;;;;11.68;10.52;;;23.30;84.00;;;;;;4193007;28;20399;-60
2021/09/11 11:33:25;;;;;;;11.93;10.77;;;23.30;84.10;;;;;;4192476;28;20045;-60
2021/09/11 11:35:48;;;;;;;11.88;10.65;;;23.30;84.10;;;;;;4191518;28;20052;-60
2021/09/11 11:38:10;;;;;;;13.20;10.45;;;23.30;84.20;;;;;;4192575;28;20094;-59
2021/09/11 11:40:32;;;;;;;11.55;10.40;;;23.30;84.30;;;;;;4192727;28;20052;-61
2021/09/11 11:43:03;;;;;;;11.57;10.45;;;23.30;84.20;;;;;;4179999;28;20069;-60
2021/09/11 11:45:27;;;;;;;12.00;10.80;;;23.30;84.30;;;;;;4174861;28;20453;-61
2021/09/11 11:47:58;;;;;;;11.88;10.63;;;23.30;84.30;;;;;;4175183;28;20098;-62
2021/09/11 11:50:23;;;;;;;10.82;9.82;;;23.30;84.40;;;;;;4175443;28;20077;-61
2021/09/11 11:52:46;;;;;;;13.60;11.20;;;23.30;84.20;;;;;;4185411;28;20491;-61
2021/09/11 11:55:10;;;;;;;11.05;10.00;;;23.30;84.10;;;;;;4192045;28;20149;-60
2021/09/11 11:57:32;;;;;;;11.85;9.52;;;23.40;84.20;;;;;;4191759;28;20052;-61
2021/09/11 12:00:00;;;;;;;11.18;10.02;;;23.30;84.10;;;;;;4192242;28;20048;-60
2021/09/11 12:02:27;;;;;;;;;;;23.30;84.00;;;;;;4184616;28;20056;-61
2021/09/11 12:04:50;;;;;;;11.32;10.13;;;23.30;84.00;;;;;;4176144;28;19924;-61
2021/09/11 12:07:25;;;;;;;11.48;10.20;;;23.30;84.10;;;;;;4175432;28;20045;-61
2021/09/11 12:09:51;;;;;;;11.98;10.32;;;23.30;84.20;;;;;;4175626;28;20427;-61
2021/09/11 12:12:13;;;;;;;10.15;9.15;;;23.30;84.30;;;;;;4180250;28;20048;-60